Kremmling, CO

10:15 PM MDT on May 24, 2018 (GMT -0600)
Kremmling

Weather History for K20V - September, 2013

Change the Weather History Date:

Tuesday, September 17, 2013

  Actual Average Record
Temperature  
Mean Temperature 56 °F -  
Max Temperature 75 °F - 82 °F (2004)
Min Temperature 37 °F - 24 °F (2006)
Degree Days  
Heating Degree Days 9    
Month to date heating degree days  
Cooling Degree Days 0    
Month to date cooling degree days  
Growing Degree Days 6 (Base 50)    
Moisture  
Dew Point 40 °F    
Average Humidity 66    
Maximum Humidity 93    
Minimum Humidity 20    
Precipitation  
Precipitation 0.00 in - 0.29 in (2007)
Sea Level Pressure  
Sea Level Pressure 30.21 in    
Wind  
Wind Speed 2 mph (West)    
Max Wind Speed 17 mph    
Max Gust Speed 24 mph    
Visibility 8 miles    
Events Fog , Rain    
T = Trace of Precipitation, MM = Missing Value Source: NWS Daily Summary

Daily Weather History Graph

Daily Weather History Graph

Search for Another Location

Airport or City:

Astronomy

Sep. 17, 2013 Rise Set
Actual Time 6:48 AM MDT 7:10 PM MDT
Civil Twilight 6:21 AM MDT 7:37 PM MDT
Nautical Twilight 5:49 AM MDT 8:09 PM MDT
Astronomical Twilight 5:16 AM MDT 8:41 PM MDT
Moon 5:59 PM MDT (9/17) 4:46 AM MDT (9/17)
Length of Visible Light 13h 16m
Length of Day
12h 21m
Waxing Gibbous, 96% of the Moon is Illuminated
Sep 17
Waxing Gibbous
Sep 19
Full
Sep 26
Last Quarter
Oct 4
New
Oct 11
First Quarter

Hourly Weather History & Observations

Time (MDT) Temp. Dew Point Humidity Pressure Visibility Wind Dir Wind Speed Gust Speed Precip Events Conditions
12:16 AM 46.4 °F 42.8 °F 87% 30.31 in 10.0 mi Calm Calm - N/A   Clear
12:36 AM 46.4 °F 42.8 °F 87% 30.31 in 10.0 mi Calm Calm - N/A   Clear
12:56 AM 46.4 °F 42.8 °F 87% 30.31 in 10.0 mi Calm Calm - N/A   Clear
1:16 AM 46.4 °F 42.8 °F 87% 30.31 in 10.0 mi Calm Calm - N/A   Clear
1:36 AM 44.6 °F 41.0 °F 87% 30.31 in 10.0 mi Calm Calm - N/A   Clear
1:56 AM 44.6 °F 41.0 °F 87% 30.31 in 10.0 mi Calm Calm - N/A   Clear
2:16 AM 44.6 °F 41.0 °F 87% 30.31 in 10.0 mi Calm Calm - N/A   Clear
2:36 AM 42.8 °F 41.0 °F 93% 30.31 in 10.0 mi Calm Calm - N/A   Clear
2:56 AM 41.0 °F 37.4 °F 87% 30.31 in 10.0 mi Calm Calm - N/A   Clear
3:16 AM 41.0 °F 37.4 °F 87% 30.31 in 10.0 mi Calm Calm - N/A   Clear
3:36 AM 41.0 °F 37.4 °F 87% 30.31 in 10.0 mi Calm Calm - N/A   Clear
3:56 AM 41.0 °F 37.4 °F 87% 30.30 in 10.0 mi Calm Calm - N/A   Clear
4:16 AM 41.0 °F 37.4 °F 87% 30.30 in 10.0 mi Calm Calm - N/A   Clear
4:36 AM 41.0 °F 39.2 °F 93% 30.30 in 10.0 mi Calm Calm - N/A   Clear
4:56 AM 41.0 °F 37.4 °F 87% 30.31 in 4.0 mi Calm Calm - N/A   Clear
5:16 AM 39.2 °F 37.4 °F 93% 30.31 in 10.0 mi Calm Calm - N/A   Clear
5:36 AM 37.4 °F 35.6 °F 93% 30.31 in 3.0 mi Calm Calm - N/A   Clear
5:55 AM 37.4 °F 35.6 °F 93% 30.31 in 2.5 mi Calm Calm - N/A   Clear
6:15 AM 37.4 °F 35.6 °F 93% 30.31 in 0.8 mi Calm Calm - N/A   Mist
6:36 AM 37.4 °F 35.6 °F 93% 30.31 in 0.5 mi Calm Calm - N/A Fog Fog
6:56 AM 37.4 °F 35.6 °F 93% 30.32 in 0.2 mi Calm Calm - N/A Fog Fog
7:16 AM 37.4 °F 35.6 °F 93% 30.32 in 0.2 mi Calm Calm - N/A Fog Fog
7:36 AM 37.4 °F 35.6 °F 93% 30.32 in 0.5 mi Calm Calm - N/A Fog Fog
7:56 AM 39.2 °F 37.4 °F 93% 30.32 in 0.2 mi Calm Calm - N/A Fog Fog
8:15 AM 41.0 °F 37.4 °F 87% 30.32 in 0.2 mi Calm Calm - N/A Fog Fog
8:36 AM 41.0 °F 37.4 °F 87% 30.32 in 0.2 mi Calm Calm - N/A Fog Fog
8:56 AM 41.0 °F 39.2 °F 93% 30.32 in 0.2 mi Calm Calm - N/A Fog Fog
9:16 AM 44.6 °F 42.8 °F 93% 30.31 in 4.0 mi Calm Calm - N/A   Overcast
9:35 AM 48.2 °F 44.6 °F 87% 30.30 in 10.0 mi Calm Calm - N/A   Scattered Clouds
9:56 AM 50.0 °F 42.8 °F 76% 30.29 in 10.0 mi Calm Calm - N/A   Clear
10:16 AM 53.6 °F 44.6 °F 72% 30.28 in 10.0 mi Calm Calm - N/A   Clear
10:35 AM 55.4 °F 42.8 °F 63% 30.27 in 10.0 mi Calm Calm - N/A   Clear
10:56 AM 59.0 °F 44.6 °F 59% 30.26 in 10.0 mi Calm Calm - N/A   Clear
11:16 AM 59.0 °F 44.6 °F 59% 30.25 in 10.0 mi Calm Calm - N/A   Clear
11:35 AM 60.8 °F 42.8 °F 52% 30.24 in 10.0 mi Calm Calm - N/A   Clear
11:56 AM 64.4 °F 42.8 °F 45% 30.22 in 10.0 mi Calm Calm - N/A   Clear
12:16 PM 69.8 °F 46.4 °F 43% 30.21 in 10.0 mi SSE 5.8 mph - N/A   Clear
12:36 PM 69.8 °F 44.6 °F 40% 30.19 in 10.0 mi Calm Calm - N/A   Clear
12:56 PM 71.6 °F 39.2 °F 31% 30.18 in 10.0 mi South 5.8 mph - N/A   Clear
1:16 PM 73.4 °F 35.6 °F 25% 30.16 in 10.0 mi West 11.5 mph 21.9 mph N/A   Clear
1:36 PM 73.4 °F 33.8 °F 23% 30.15 in 10.0 mi SW 9.2 mph - N/A   Clear
1:56 PM 73.4 °F 30.2 °F 20% 30.14 in 10.0 mi SW 10.4 mph 16.1 mph N/A   Scattered Clouds
2:16 PM 73.4 °F 32.0 °F 22% 30.12 in 10.0 mi West 12.7 mph 16.1 mph N/A   Scattered Clouds
2:36 PM 73.4 °F 32.0 °F 22% 30.12 in 10.0 mi West 8.1 mph 17.3 mph N/A   Mostly Cloudy
2:56 PM 73.4 °F 32.0 °F 22% 30.12 in 10.0 mi SW 10.4 mph 24.2 mph N/A   Scattered Clouds
3:16 PM 71.6 °F 33.8 °F 25% 30.12 in 10.0 mi West 9.2 mph - N/A   Mostly Cloudy
3:36 PM 75.2 °F 35.6 °F 24% 30.11 in 10.0 mi WSW 12.7 mph 17.3 mph N/A   Mostly Cloudy
3:56 PM 73.4 °F 35.6 °F 25% 30.10 in 10.0 mi WSW 11.5 mph - N/A   Mostly Cloudy
4:16 PM 73.4 °F 35.6 °F 25% 30.09 in 10.0 mi West 9.2 mph - N/A   Mostly Cloudy
4:36 PM 71.6 °F 35.6 °F 27% 30.09 in 10.0 mi West 9.2 mph - N/A   Scattered Clouds
4:56 PM 69.8 °F 37.4 °F 31% 30.10 in 10.0 mi West 4.6 mph - N/A   Scattered Clouds
5:15 PM 69.8 °F 37.4 °F 31% 30.10 in 10.0 mi Calm Calm - N/A   Mostly Cloudy
5:36 PM 64.4 °F 41.0 °F 42% 30.11 in 10.0 mi North 17.3 mph 21.9 mph N/A   Overcast
5:56 PM 62.6 °F 41.0 °F 45% 30.11 in 10.0 mi NNW 11.5 mph - N/A   Overcast
6:16 PM 64.4 °F 39.2 °F 40% 30.09 in 10.0 mi NW 11.5 mph 18.4 mph N/A   Mostly Cloudy
6:36 PM 62.6 °F 37.4 °F 39% 30.10 in 10.0 mi NW 8.1 mph - N/A   Mostly Cloudy
6:56 PM 60.8 °F 42.8 °F 52% 30.12 in 10.0 mi WNW 3.5 mph - N/A   Mostly Cloudy
7:15 PM 59.0 °F 42.8 °F 55% 30.12 in 10.0 mi Calm Calm - N/A Rain Rain
7:36 PM 59.0 °F 44.6 °F 59% 30.11 in 10.0 mi West 3.5 mph - N/A   Overcast
7:55 PM 59.0 °F 44.6 °F 59% 30.11 in 10.0 mi East 5.8 mph - N/A   Mostly Cloudy
8:16 PM 55.4 °F 44.6 °F 67% 30.12 in 10.0 mi SSE 4.6 mph - N/A   Scattered Clouds
8:36 PM 53.6 °F 44.6 °F 72% 30.12 in 10.0 mi Calm Calm - N/A   Clear
8:55 PM 53.6 °F 44.6 °F 72% 30.12 in 10.0 mi Calm Calm - N/A   Clear
9:16 PM 53.6 °F 44.6 °F 72% 30.11 in 10.0 mi Calm Calm - N/A   Clear
9:36 PM 51.8 °F 44.6 °F 76% 30.11 in 10.0 mi NNE 3.5 mph - N/A   Clear
9:56 PM 50.0 °F 44.6 °F 82% 30.11 in 10.0 mi Calm Calm - N/A   Clear
10:16 PM 50.0 °F 42.8 °F 76% 30.10 in 10.0 mi Calm Calm - N/A   Clear
10:36 PM 50.0 °F 42.8 °F 76% 30.10 in 10.0 mi Calm Calm - N/A   Clear
10:56 PM 50.0 °F 44.6 °F 82% 30.10 in 10.0 mi Calm Calm - N/A   Clear
11:16 PM 50.0 °F 44.6 °F 82% 30.10 in 10.0 mi Calm Calm - N/A   Clear
11:36 PM 50.0 °F 44.6 °F 82% 30.10 in 10.0 mi Calm Calm - N/A   Clear
11:56 PM 46.4 °F 42.8 °F 87% 30.10 in 10.0 mi Calm Calm - N/A   Scattered Clouds